Time;durP1;ratioP1;P1;durP2;ratioP2;P2;SDS_P1;SDS_P2;PMS_P1;PMS_P2;Temp;Humidity;BMP_temperature;BMP_pressure;BME280_temperature;BME280_humidity;BME280_pressure;Samples;Min_cycle;Max_cycle;Signal;HPM_P1;HPM_P2
2021/06/30 00:01:58;;;;;;;9.60;6.50;;;;;;;17.02;89.45;100186.13;1795846;78;21042;-74
2021/06/30 00:04:25;;;;;;;7.50;6.60;;;;;;;17.06;89.47;100192.48;1796402;78;20992;-73
2021/06/30 00:06:52;;;;;;;10.27;6.83;;;;;;;17.08;89.51;100191.64;1786462;78;20996;-73
2021/06/30 00:09:21;;;;;;;11.23;6.70;;;;;;;17.10;89.62;100199.41;1785943;78;21074;-74
2021/06/30 00:11:48;;;;;;;8.63;6.67;;;;;;;17.10;89.74;100194.02;1799291;78;21109;-73
2021/06/30 00:14:16;;;;;;;8.87;6.50;;;;;;;17.08;89.87;100198.95;1789820;78;21012;-75
2021/06/30 00:16:44;;;;;;;10.27;6.70;;;;;;;17.08;89.95;100202.99;1798769;79;21550;-74
2021/06/30 00:19:12;;;;;;;8.73;7.10;;;;;;;17.07;90.07;100210.27;1806842;78;21071;-75
2021/06/30 00:21:38;;;;;;;8.27;6.50;;;;;;;17.05;90.26;100201.70;1797861;78;21699;-74
2021/06/30 00:24:06;;;;;;;10.37;7.27;;;;;;;17.05;90.41;100209.80;1796590;79;21137;-74
2021/06/30 00:26:35;;;;;;;8.50;7.17;;;;;;;17.04;90.47;100216.28;1799016;78;21058;-73
2021/06/30 00:29:03;;;;;;;9.10;7.40;;;;;;;17.04;90.48;100218.97;1807068;79;20999;-73
2021/06/30 00:31:30;;;;;;;9.77;7.30;;;;;;;17.03;90.47;100218.73;1797708;78;21066;-72
2021/06/30 00:34:02;;;;;;;10.60;7.30;;;;;;;17.02;90.55;100216.36;1777962;79;21553;-73
2021/06/30 00:36:26;;;;;;;10.23;6.90;;;;;;;17.03;90.65;100220.64;1789983;78;22039;-74
2021/06/30 00:38:53;;;;;;;9.33;7.40;;;;;;;17.01;90.73;100216.92;1788188;78;21145;-73
2021/06/30 00:41:20;;;;;;;8.17;7.27;;;;;;;16.98;90.80;100218.88;1790077;78;21576;-74
2021/06/30 00:43:47;;;;;;;9.57;7.23;;;;;;;16.94;90.80;100214.39;1792980;78;21022;-73
2021/06/30 00:46:15;;;;;;;10.20;7.60;;;;;;;16.86;90.76;100210.55;1789174;78;21062;-74
2021/06/30 00:48:43;;;;;;;8.43;7.50;;;;;;;16.78;90.82;100202.64;1763399;78;21534;-75
2021/06/30 00:51:10;;;;;;;8.47;7.20;;;;;;;16.74;90.87;100201.61;1788293;78;21179;-72
2021/06/30 00:53:37;;;;;;;11.30;8.13;;;;;;;16.71;90.98;100201.43;1796277;78;21085;-73
2021/06/30 00:56:04;;;;;;;9.07;7.57;;;;;;;16.69;91.17;100205.00;1809296;77;21035;-73
2021/06/30 00:58:30;;;;;;;9.97;7.80;;;;;;;16.71;91.36;100200.08;1789296;78;21030;-73
2021/06/30 01:00:57;;;;;;;8.80;7.53;;;;;;;16.73;91.54;100202.73;1796723;78;21966;-74
2021/06/30 01:03:24;;;;;;;9.37;7.30;;;;;;;16.74;91.72;100205.66;1794804;78;21147;-73
2021/06/30 01:05:53;;;;;;;10.63;7.47;;;;;;;16.75;91.87;100210.53;1809999;78;21035;-73
2021/06/30 01:08:20;;;;;;;7.80;7.00;;;;;;;16.76;91.90;100213.48;1786022;78;21197;-73
2021/06/30 01:10:46;;;;;;;8.10;7.17;;;;;;;16.77;91.92;100206.98;1799630;78;21094;-73
2021/06/30 01:13:13;;;;;;;8.00;7.20;;;;;;;16.77;91.97;100205.63;1802184;78;21584;-74
2021/06/30 01:15:53;;;;;;;7.93;7.13;;;;;;;16.75;92.05;100207.83;1786326;78;21082;-74
2021/06/30 01:18:19;;;;;;;9.00;7.33;;;;;;;16.74;92.18;100200.82;1802188;78;21043;-74
2021/06/30 01:20:47;;;;;;;8.93;7.03;;;;;;;16.74;92.29;100199.47;1801180;77;21011;-73
2021/06/30 01:23:13;;;;;;;10.63;7.10;;;;;;;16.70;92.45;100195.24;1802096;78;21558;-73
2021/06/30 01:25:40;;;;;;;7.87;7.07;;;;;;;16.68;92.61;100191.25;1790017;78;21536;-73
2021/06/30 01:28:06;;;;;;;8.23;7.17;;;;;;;16.68;92.73;100192.05;1810906;79;21050;-73
2021/06/30 01:30:33;;;;;;;7.77;6.97;;;;;;;16.67;92.78;100186.42;1800552;78;21125;-73
2021/06/30 01:33:00;;;;;;;9.60;6.97;;;;;;;16.68;92.78;100189.91;1815722;78;21274;-75
2021/06/30 01:35:27;;;;;;;9.37;7.30;;;;;;;16.68;92.80;100189.91;1806779;79;21014;-74
2021/06/30 01:37:53;;;;;;;8.03;6.67;;;;;;;16.69;92.78;100190.17;1793834;78;21065;-74
2021/06/30 01:40:21;;;;;;;7.60;6.90;;;;;;;16.73;92.78;100192.49;1787445;78;21089;-74
2021/06/30 01:42:49;;;;;;;9.00;7.07;;;;;;;16.78;92.78;100189.16;1796449;78;21597;-74
2021/06/30 01:45:16;;;;;;;7.77;6.97;;;;;;;16.85;92.82;100193.56;1797586;78;21531;-74
2021/06/30 01:47:43;;;;;;;9.73;7.37;;;;;;;16.92;92.85;100199.87;1797114;78;21141;-74
2021/06/30 01:50:10;;;;;;;8.20;6.67;;;;;;;16.98;92.90;100201.34;1802622;78;21622;-74
2021/06/30 01:52:37;;;;;;;7.83;6.93;;;;;;;17.02;92.89;100199.62;1787236;78;21062;-73
2021/06/30 01:55:06;;;;;;;7.83;6.60;;;;;;;17.02;92.66;100205.57;1793832;79;21047;-73
2021/06/30 01:57:34;;;;;;;10.47;7.17;;;;;;;16.93;92.36;100212.25;1788624;78;21038;-74
2021/06/30 02:00:02;;;;;;;9.27;6.97;;;;;;;16.84;92.20;100208.14;1813383;78;21058;-74
2021/06/30 02:02:31;;;;;;;7.23;6.33;;;;;;;16.79;92.09;100215.58;1776729;78;21105;-73
2021/06/30 02:05:17;;;;;;;11.83;8.23;;;;;;;16.77;92.00;100216.42;1806281;78;21037;-75
2021/06/30 02:07:51;;;;;;;10.03;8.00;;;;;;;16.71;91.81;100218.41;1812153;77;21469;-74
2021/06/30 02:10:20;;;;;;;10.90;8.90;;;;;;;16.56;91.55;100222.83;1788415;78;21043;-73
2021/06/30 02:12:47;;;;;;;10.13;8.50;;;;;;;16.44;91.52;100224.70;1778881;78;21071;-74
2021/06/30 02:15:21;;;;;;;9.53;8.53;;;;;;;16.37;91.55;100227.02;1799336;78;21984;-73
2021/06/30 02:17:50;;;;;;;11.87;8.87;;;;;;;16.31;91.64;100222.28;1790992;78;21670;-74
2021/06/30 02:20:18;;;;;;;11.20;8.67;;;;;;;16.32;91.81;100229.28;1794400;78;21034;-73
2021/06/30 02:22:45;;;;;;;11.33;8.83;;;;;;;16.33;91.84;100231.42;1801069;78;21097;-73
2021/06/30 02:25:15;;;;;;;9.80;7.83;;;;;;;16.35;91.91;100233.25;1800744;78;21520;-73
2021/06/30 02:27:42;;;;;;;10.17;8.10;;;;;;;16.38;91.94;100229.39;1794615;78;21096;-73
2021/06/30 02:30:16;;;;;;;13.17;8.33;;;;;;;16.43;91.90;100238.48;1786820;78;20996;-73
2021/06/30 02:32:44;;;;;;;8.23;7.37;;;;;;;16.48;91.87;100239.16;1800860;78;21556;-73
2021/06/30 02:35:14;;;;;;;9.50;7.77;;;;;;;16.51;91.72;100241.80;1802971;78;21065;-73
2021/06/30 02:37:40;;;;;;;10.47;8.37;;;;;;;16.50;91.68;100241.00;1792732;79;21011;-73
2021/06/30 02:40:11;;;;;;;9.73;8.27;;;;;;;16.46;91.79;100241.93;1791816;78;21970;-73
2021/06/30 02:42:38;;;;;;;9.77;8.30;;;;;;;16.43;91.99;100237.94;1792643;78;21546;-73
2021/06/30 02:45:08;;;;;;;9.17;7.77;;;;;;;16.47;92.19;100238.92;1801004;78;21042;-74
2021/06/30 02:47:36;;;;;;;11.20;8.33;;;;;;;16.52;92.37;100236.12;1793966;79;21074;-74
2021/06/30 02:50:06;;;;;;;10.40;8.50;;;;;;;16.60;92.40;100237.28;1800992;78;21513;-74
2021/06/30 02:52:33;;;;;;;10.77;8.50;;;;;;;16.67;92.41;100235.52;1811530;78;21142;-73
2021/06/30 02:55:00;;;;;;;10.40;8.87;;;;;;;16.72;92.44;100242.94;1800176;78;21021;-74
2021/06/30 02:57:27;;;;;;;9.03;8.13;;;;;;;16.79;92.57;100243.89;1796269;79;21109;-74
2021/06/30 02:59:56;;;;;;;9.97;8.70;;;;;;;16.84;92.62;100242.41;1806466;78;20984;-74
2021/06/30 03:02:23;;;;;;;9.93;8.87;;;;;;;16.91;92.77;100241.42;1789029;78;21058;-74
2021/06/30 03:04:50;;;;;;;10.33;9.30;;;;;;;16.95;92.93;100238.38;1792249;78;21585;-74
2021/06/30 03:07:18;;;;;;;10.60;9.23;;;;;;;17.02;93.03;100237.95;1788668;78;21541;-73
2021/06/30 03:09:45;;;;;;;10.13;9.13;;;;;;;17.12;93.06;100234.99;1802106;78;21078;-73
2021/06/30 03:12:12;;;;;;;9.43;8.43;;;;;;;17.22;93.13;100231.24;1798654;78;21581;-74
2021/06/30 03:14:40;;;;;;;10.17;8.93;;;;;;;17.34;93.06;100232.80;1803855;78;22131;-74
2021/06/30 03:17:08;;;;;;;10.30;9.07;;;;;;;17.46;93.07;100228.97;1814809;79;21207;-74
2021/06/30 03:19:35;;;;;;;12.00;9.30;;;;;;;17.57;93.01;100234.36;1791318;78;21077;-74
2021/06/30 03:22:03;;;;;;;10.87;9.20;;;;;;;17.69;93.01;100233.75;1812302;78;21040;-74
2021/06/30 03:24:30;;;;;;;12.47;9.70;;;;;;;17.82;93.03;100230.73;1792334;78;20987;-75
2021/06/30 03:26:56;;;;;;;9.33;8.37;;;;;;;17.93;92.87;100230.70;1812800;78;21014;-74
2021/06/30 03:29:23;;;;;;;10.40;8.23;;;;;;;18.01;92.42;100229.91;1789754;79;21181;-74
2021/06/30 03:31:51;;;;;;;9.93;8.67;;;;;;;18.11;91.97;100220.71;1800231;78;21082;-74
2021/06/30 03:34:18;;;;;;;10.17;8.67;;;;;;;18.22;91.54;100224.70;1798896;78;21157;-75
2021/06/30 03:36:44;;;;;;;9.60;8.60;;;;;;;18.33;91.15;100229.27;1801563;78;21033;-74
2021/06/30 03:39:11;;;;;;;12.00;8.90;;;;;;;18.44;90.80;100233.23;1804794;79;21050;-73
2021/06/30 03:41:38;;;;;;;9.73;8.73;;;;;;;18.56;90.55;100234.50;1810927;77;21926;-74
2021/06/30 03:44:05;;;;;;;11.43;8.73;;;;;;;18.67;90.37;100226.31;1804924;78;21021;-74
2021/06/30 03:46:32;;;;;;;9.53;8.27;;;;;;;18.72;90.14;100234.28;1775710;78;21147;-73
2021/06/30 03:49:00;;;;;;;9.10;7.87;;;;;;;18.73;89.64;100236.69;1787835;78;21102;-73
2021/06/30 03:51:27;;;;;;;9.77;8.00;;;;;;;18.75;89.39;100236.36;1775546;79;21044;-73
2021/06/30 03:53:54;;;;;;;8.97;7.77;;;;;;;18.86;89.35;100237.64;1785841;78;21984;-74
2021/06/30 03:56:25;;;;;;;10.07;7.60;;;;;;;19.00;89.14;100244.78;1785963;78;21069;-73
2021/06/30 03:58:49;;;;;;;8.73;7.87;;;;;;;19.12;88.90;100242.22;1776932;78;21465;-72
2021/06/30 04:01:16;;;;;;;8.70;7.70;;;;;;;19.21;88.07;100245.69;1802943;78;21002;-74
2021/06/30 04:03:45;;;;;;;8.23;6.70;;;;;;;19.27;87.53;100244.39;1807042;78;21094;-73
2021/06/30 04:06:12;;;;;;;9.03;7.37;;;;;;;19.34;86.76;100244.69;1789408;78;21106;-73
2021/06/30 04:08:39;;;;;;;8.03;7.10;;;;;;;19.45;85.92;100251.36;1791932;78;21557;-72
2021/06/30 04:11:06;;;;;;;8.87;6.77;;;;;;;19.59;85.35;100251.72;1817116;79;21155;-73
2021/06/30 04:13:33;;;;;;;8.27;6.97;;;;;;;19.70;84.59;100251.61;1808723;78;21050;-74
2021/06/30 04:15:59;;;;;;;6.90;6.20;;;;;;;19.78;83.42;100249.44;1808983;78;21025;-74
2021/06/30 04:18:26;;;;;;;7.10;6.30;;;;;;;19.85;82.67;100246.22;1804373;78;21134;-73
2021/06/30 04:20:53;;;;;;;7.03;5.73;;;;;;;19.87;81.93;100244.77;1788983;78;21695;-73
2021/06/30 04:23:20;;;;;;;7.10;5.83;;;;;;;19.95;81.20;100244.48;1793684;78;21078;-73
2021/06/30 04:25:48;;;;;;;6.80;6.00;;;;;;;20.03;80.40;100238.20;1807062;78;21033;-73
2021/06/30 04:28:15;;;;;;;7.77;6.03;;;;;;;20.13;80.00;100237.82;1804972;78;21126;-73
2021/06/30 04:30:42;;;;;;;6.90;6.10;;;;;;;20.27;79.98;100239.48;1797559;78;21716;-73
2021/06/30 04:33:09;;;;;;;9.07;6.30;;;;;;;20.39;79.67;100243.64;1792544;78;21062;-72
2021/06/30 04:35:35;;;;;;;7.00;5.90;;;;;;;20.50;79.19;100248.09;1807341;78;21559;-74
2021/06/30 04:38:04;;;;;;;7.03;5.83;;;;;;;20.60;78.43;100247.75;1793522;78;21003;-73
2021/06/30 04:40:30;;;;;;;6.70;5.97;;;;;;;20.69;78.18;100252.52;1794436;78;21724;-78
2021/06/30 04:42:57;;;;;;;6.73;5.57;;;;;;;20.82;77.72;100256.09;1797838;78;21115;-76
2021/06/30 04:45:23;;;;;;;6.67;5.87;;;;;;;20.94;77.15;100256.72;1805253;78;21082;-76
2021/06/30 04:47:51;;;;;;;7.60;5.27;;;;;;;20.93;75.54;100251.86;1799153;78;21019;-75
2021/06/30 04:50:18;;;;;;;7.27;6.17;;;;;;;20.91;74.81;100253.31;1802721;78;21058;-75
2021/06/30 04:52:44;;;;;;;8.27;5.60;;;;;;;20.96;75.15;100252.55;1802914;79;21068;-76
2021/06/30 04:55:11;;;;;;;6.57;5.57;;;;;;;21.07;74.87;100255.06;1797611;78;21149;-74
2021/06/30 04:57:39;;;;;;;8.50;5.60;;;;;;;21.20;74.64;100254.53;1807972;78;21023;-73
2021/06/30 05:00:07;;;;;;;6.23;5.30;;;;;;;21.32;74.12;100248.31;1796533;78;20991;-73
2021/06/30 05:02:34;;;;;;;8.57;5.63;;;;;;;21.40;73.63;100243.40;1800276;78;21160;-74
2021/06/30 05:05:01;;;;;;;5.87;5.20;;;;;;;21.51;73.31;100242.39;1794835;78;21109;-73
2021/06/30 05:07:27;;;;;;;6.40;5.17;;;;;;;21.57;71.92;100247.05;1794683;79;21474;-72
2021/06/30 05:09:56;;;;;;;5.90;5.00;;;;;;;21.54;71.09;100238.99;1812690;78;20980;-73
2021/06/30 05:12:22;;;;;;;6.47;5.00;;;;;;;21.52;70.73;100239.92;1787240;79;21191;-73
2021/06/30 05:14:51;;;;;;;5.90;5.30;;;;;;;21.52;70.64;100243.42;1794221;78;21062;-73
2021/06/30 05:17:17;;;;;;;7.37;5.00;;;;;;;21.56;70.67;100237.31;1794392;78;21115;-73
2021/06/30 05:19:44;;;;;;;7.30;5.10;;;;;;;21.54;69.86;100236.28;1804808;78;21515;-73
2021/06/30 05:22:11;;;;;;;5.73;5.13;;;;;;;21.60;69.92;100239.00;1789033;79;21037;-73
2021/06/30 05:24:37;;;;;;;7.20;4.67;;;;;;;21.67;69.01;100239.23;1794086;78;21627;-73
2021/06/30 05:27:05;;;;;;;7.33;5.23;;;;;;;21.70;68.94;100239.91;1808144;77;21029;-74
2021/06/30 05:29:33;;;;;;;6.50;4.80;;;;;;;21.75;68.90;100242.42;1775579;80;21001;-74
2021/06/30 05:32:00;;;;;;;6.00;4.63;;;;;;;21.83;68.55;100246.72;1791711;78;21810;-74
2021/06/30 05:34:26;;;;;;;6.67;4.60;;;;;;;21.90;68.60;100245.58;1785404;79;21082;-74
2021/06/30 05:36:53;;;;;;;7.50;4.80;;;;;;;22.00;68.43;100243.75;1804176;78;21045;-74
2021/06/30 05:39:20;;;;;;;8.83;5.10;;;;;;;22.09;68.12;100248.52;1804803;78;20979;-73
2021/06/30 05:41:48;;;;;;;6.80;4.97;;;;;;;22.19;67.81;100250.00;1781110;78;21062;-73
2021/06/30 05:44:16;;;;;;;5.67;4.57;;;;;;;22.31;67.56;100249.17;1784497;80;21155;-73
2021/06/30 05:46:44;;;;;;;5.47;4.47;;;;;;;22.44;66.94;100245.28;1801489;78;21038;-73
2021/06/30 05:49:12;;;;;;;5.57;4.60;;;;;;;22.53;65.68;100251.96;1798565;78;21116;-74
2021/06/30 05:51:41;;;;;;;6.37;4.77;;;;;;;22.56;65.69;100245.26;1799089;78;21098;-73
2021/06/30 05:54:12;;;;;;;5.80;4.43;;;;;;;22.62;65.11;100240.37;1813931;79;20991;-73
2021/06/30 05:56:39;;;;;;;5.70;4.27;;;;;;;22.71;65.13;100241.02;1801635;78;21187;-74
2021/06/30 05:59:06;;;;;;;6.37;4.43;;;;;;;22.81;64.19;100243.25;1795666;78;21030;-72
2021/06/30 06:01:33;;;;;;;5.27;4.00;;;;;;;22.93;63.93;100238.33;1796563;78;21134;-73
2021/06/30 06:04:00;;;;;;;6.67;4.20;;;;;;;23.07;63.84;100235.22;1798505;78;20999;-73
2021/06/30 06:06:27;;;;;;;5.70;4.10;;;;;;;23.22;63.49;100233.06;1801906;78;21039;-73
2021/06/30 06:08:55;;;;;;;5.80;4.30;;;;;;;23.36;63.01;100239.45;1798625;78;21892;-73
2021/06/30 06:11:22;;;;;;;6.87;4.03;;;;;;;23.50;62.58;100239.83;1788097;79;21042;-73
2021/06/30 06:13:48;;;;;;;5.93;4.47;;;;;;;23.63;61.94;100233.14;1784308;78;21058;-73
2021/06/30 06:16:19;;;;;;;6.10;4.20;;;;;;;23.75;61.59;100230.89;1794691;78;21055;-73
2021/06/30 06:18:45;;;;;;;6.27;4.03;;;;;;;23.85;61.17;100235.02;1803161;78;21025;-74
2021/06/30 06:21:11;;;;;;;4.87;3.70;;;;;;;23.93;61.50;100237.36;1806386;78;21086;-73
2021/06/30 06:23:38;;;;;;;4.53;3.80;;;;;;;23.97;60.13;100237.64;1800004;78;21202;-73
2021/06/30 06:26:04;;;;;;;4.10;3.70;;;;;;;23.99;59.41;100246.86;1800921;78;21506;-75
2021/06/30 06:28:33;;;;;;;6.10;3.53;;;;;;;24.06;59.16;100245.64;1802119;78;21106;-74
2021/06/30 06:31:01;;;;;;;5.00;3.43;;;;;;;24.16;58.75;100251.13;1800734;78;21584;-74
2021/06/30 06:33:28;;;;;;;5.00;3.47;;;;;;;24.22;58.55;100257.31;1801981;79;21843;-75
2021/06/30 06:35:55;;;;;;;7.03;3.93;;;;;;;24.28;58.17;100253.16;1811419;78;21054;-74
2021/06/30 06:38:23;;;;;;;4.13;2.90;;;;;;;24.38;57.42;100253.73;1802322;78;21007;-74
2021/06/30 06:40:51;;;;;;;3.50;2.80;;;;;;;24.43;56.41;100250.18;1791239;78;21194;-75
2021/06/30 06:43:18;;;;;;;5.30;3.00;;;;;;;24.40;54.61;100244.62;1792956;78;21103;-74
2021/06/30 06:45:44;;;;;;;4.03;2.30;;;;;;;24.41;54.90;100244.86;1792187;78;21887;-74
2021/06/30 06:48:11;;;;;;;4.27;2.33;;;;;;;24.45;52.75;100247.08;1797194;78;21293;-75
2021/06/30 06:50:38;;;;;;;4.47;2.50;;;;;;;24.48;51.54;100241.72;1808515;78;21675;-75
2021/06/30 06:53:04;;;;;;;2.60;2.00;;;;;;;24.50;49.17;100242.13;1786394;79;21090;-72
2021/06/30 06:55:33;;;;;;;3.03;2.10;;;;;;;24.45;48.41;100236.16;1795191;78;21150;-75
2021/06/30 06:57:59;;;;;;;2.10;1.70;;;;;;;24.43;49.42;100233.80;1806229;78;21095;-74
2021/06/30 07:00:26;;;;;;;3.47;2.00;;;;;;;24.50;49.14;100237.25;1801907;78;21633;-75
2021/06/30 07:02:53;;;;;;;3.00;2.00;;;;;;;24.53;47.83;100233.22;1800090;78;21021;-73
2021/06/30 07:05:20;;;;;;;2.77;2.00;;;;;;;24.59;49.28;100230.22;1802997;77;21043;-75
2021/06/30 07:07:47;;;;;;;3.53;2.60;;;;;;;24.71;49.64;100233.59;1804112;78;21125;-73
2021/06/30 07:10:14;;;;;;;5.27;2.93;;;;;;;24.86;51.96;100235.23;1807389;78;21790;-75
2021/06/30 07:12:41;;;;;;;3.23;2.53;;;;;;;24.96;52.01;100229.95;1799318;78;21065;-75
2021/06/30 07:15:10;;;;;;;3.27;2.10;;;;;;;25.03;51.37;100227.35;1808023;78;21038;-75
2021/06/30 07:17:39;;;;;;;2.80;1.87;;;;;;;25.10;49.37;100230.00;1802286;78;21070;-75
2021/06/30 07:20:07;;;;;;;3.47;2.67;;;;;;;25.17;47.11;100230.16;1788968;78;21576;-74
2021/06/30 07:22:34;;;;;;;3.73;2.73;;;;;;;25.20;48.28;100226.12;1810972;78;21117;-75
2021/06/30 07:25:03;;;;;;;4.60;2.90;;;;;;;25.26;49.65;100225.25;1805872;78;21474;-74
2021/06/30 07:27:29;;;;;;;3.20;2.20;;;;;;;25.37;51.63;100228.16;1794095;78;21145;-76
2021/06/30 07:29:56;;;;;;;4.37;2.80;;;;;;;25.49;51.51;100237.55;1800392;78;21250;-74
2021/06/30 07:32:23;;;;;;;3.90;2.73;;;;;;;25.59;51.35;100240.24;1820986;77;21624;-77
2021/06/30 07:34:50;;;;;;;4.10;3.13;;;;;;;25.60;51.71;100233.61;1790348;78;21939;-73
2021/06/30 07:37:17;;;;;;;3.80;2.50;;;;;;;25.63;51.70;100238.34;1792639;78;21011;-72
2021/06/30 07:39:44;;;;;;;3.50;2.60;;;;;;;25.73;52.10;100243.20;1795380;78;21840;-73
2021/06/30 07:42:11;;;;;;;3.00;2.30;;;;;;;25.87;51.64;100246.78;1789645;78;21042;-72
2021/06/30 07:44:38;;;;;;;3.37;2.47;;;;;;;26.01;52.07;100241.51;1781352;78;21019;-73
2021/06/30 07:47:06;;;;;;;3.33;2.50;;;;;;;26.16;51.58;100241.14;1784699;78;21130;-74
2021/06/30 07:49:34;;;;;;;3.33;2.53;;;;;;;26.27;51.31;100236.59;1802539;78;20984;-75
2021/06/30 07:52:00;;;;;;;3.70;2.33;;;;;;;26.35;48.90;100231.98;1803354;78;21014;-74
2021/06/30 07:54:27;;;;;;;3.53;2.43;;;;;;;26.36;48.62;100230.84;1800183;78;21537;-74
2021/06/30 07:56:54;;;;;;;3.83;2.50;;;;;;;26.40;48.01;100231.67;1799795;78;21074;-75
2021/06/30 07:59:21;;;;;;;3.27;2.30;;;;;;;26.46;47.13;100230.19;1785897;78;21984;-73
2021/06/30 08:01:49;;;;;;;3.40;2.17;;;;;;;26.54;46.74;100229.71;1798460;78;20995;-75
2021/06/30 08:04:15;;;;;;;5.17;2.40;;;;;;;26.61;46.49;100228.42;1808681;78;21012;-76
2021/06/30 08:06:43;;;;;;;4.07;2.20;;;;;;;26.64;46.45;100220.24;1787909;78;21043;-76
2021/06/30 08:09:10;;;;;;;4.40;2.60;;;;;;;26.71;46.86;100225.02;1784736;78;21175;-75
2021/06/30 08:11:39;;;;;;;2.70;2.30;;;;;;;26.78;45.92;100225.09;1796605;78;21043;-76
2021/06/30 08:14:06;;;;;;;3.23;2.17;;;;;;;26.85;45.78;100221.08;1801142;78;21073;-79
2021/06/30 08:16:34;;;;;;;4.17;2.13;;;;;;;26.92;44.46;100226.41;1787125;78;21085;-76
2021/06/30 08:19:01;;;;;;;3.10;2.13;;;;;;;26.99;44.59;100218.28;1792027;78;21030;-74
2021/06/30 08:21:28;;;;;;;3.73;2.67;;;;;;;27.09;43.25;100227.19;1793975;78;21110;-74
2021/06/30 08:23:55;;;;;;;3.07;2.20;;;;;;;27.17;43.69;100224.73;1793740;78;21929;-76
2021/06/30 08:26:21;;;;;;;4.00;2.30;;;;;;;27.23;43.02;100225.97;1805937;78;21022;-74
2021/06/30 08:28:49;;;;;;;3.03;2.10;;;;;;;27.24;43.97;100226.16;1810489;78;21015;-74
2021/06/30 08:31:16;;;;;;;5.27;2.80;;;;;;;27.27;42.62;100229.52;1796756;78;21577;-75
2021/06/30 08:33:42;;;;;;;3.27;2.90;;;;;;;27.25;42.87;100231.88;1788896;79;21094;-74
2021/06/30 08:36:09;;;;;;;3.60;2.80;;;;;;;27.13;42.47;100229.41;1791586;78;21142;-75
2021/06/30 08:38:36;;;;;;;4.20;2.70;;;;;;;27.01;41.78;100228.27;1787514;79;21027;-73
2021/06/30 08:41:02;;;;;;;3.20;2.30;;;;;;;26.94;41.94;100222.72;1794966;78;21023;-73
2021/06/30 08:43:29;;;;;;;4.20;2.60;;;;;;;26.96;42.35;100225.30;1793714;78;21030;-75
2021/06/30 08:45:59;;;;;;;3.70;2.30;;;;;;;27.06;42.69;100227.94;1791522;78;21085;-76
2021/06/30 08:48:28;;;;;;;4.10;2.40;;;;;;;27.20;43.68;100232.20;1793323;79;21118;-75
2021/06/30 08:50:58;;;;;;;3.40;2.43;;;;;;;27.34;42.29;100230.98;1805382;78;21005;-75
2021/06/30 08:53:24;;;;;;;3.83;2.80;;;;;;;27.39;42.70;100235.31;1791987;78;21597;-75
2021/06/30 08:55:51;;;;;;;3.13;2.30;;;;;;;27.51;42.17;100233.66;1802252;78;21051;-75
2021/06/30 08:58:17;;;;;;;3.57;2.53;;;;;;;27.66;42.67;100226.31;1800594;78;21035;-77
2021/06/30 09:00:44;;;;;;;3.07;2.40;;;;;;;27.80;43.88;100228.39;1804484;78;21102;-77
2021/06/30 09:03:18;;;;;;;4.73;2.73;;;;;;;27.92;43.35;100223.97;1797001;78;21106;-75
2021/06/30 09:08:44;;;;;;;3.70;2.70;;;;;;;28.19;42.54;100230.00;1796777;78;21558;-75
2021/06/30 09:11:18;;;;;;;3.77;2.53;;;;;;;28.32;41.42;100225.55;1797251;78;20983;-76
2021/06/30 09:13:48;;;;;;;3.30;2.70;;;;;;;28.44;42.28;100221.13;1786067;78;21102;-74
2021/06/30 09:16:15;;;;;;;3.70;2.70;;;;;;;28.56;41.56;100224.11;1790077;78;21071;-76
2021/06/30 09:18:42;;;;;;;3.37;2.50;;;;;;;28.64;40.66;100222.97;1789915;78;21050;-74
2021/06/30 09:21:24;;;;;;;3.40;2.70;;;;;;;28.63;39.87;100222.19;1796297;78;21023;-74
2021/06/30 09:24:20;;;;;;;2.73;2.23;;;;;;;28.58;39.75;100218.43;1764830;80;21038;-74
2021/06/30 09:26:57;;;;;;;4.00;2.70;;;;;;;28.57;39.36;100213.34;1762836;79;21153;-75
2021/06/30 09:29:23;;;;;;;3.50;2.40;;;;;;;28.45;39.84;100214.45;1721857;81;21003;-75
2021/06/30 09:31:53;;;;;;;3.00;2.40;;;;;;;28.40;41.07;100212.09;1723514;82;21618;-74
2021/06/30 09:34:22;;;;;;;3.57;2.60;;;;;;;28.47;41.63;100209.38;1727256;81;22188;-74
2021/06/30 09:36:59;;;;;;;4.62;2.90;;;;;;;28.62;41.86;100208.82;1702780;82;21483;-74
2021/06/30 09:39:27;;;;;;;3.20;2.40;;;;;;;28.70;40.70;100207.09;1729498;81;21064;-74
2021/06/30 09:42:13;;;;;;;3.37;2.40;;;;;;;28.71;40.08;100205.91;1725216;81;21054;-74
2021/06/30 09:44:42;;;;;;;3.70;2.40;;;;;;;28.74;40.34;100199.63;1733082;80;21038;-73
2021/06/30 09:47:15;;;;;;;2.83;2.20;;;;;;;28.83;40.85;100200.64;1730487;81;21045;-73
2021/06/30 09:49:42;;;;;;;4.43;2.50;;;;;;;28.92;40.42;100194.19;1732283;81;21034;-75
2021/06/30 09:52:12;;;;;;;6.90;2.60;;;;;;;28.83;39.46;100177.88;1739770;80;21098;-73
2021/06/30 09:54:42;;;;;;;3.73;2.43;;;;;;;28.61;39.60;100181.94;1734454;81;21092;-75
2021/06/30 09:57:11;;;;;;;4.10;1.90;;;;;;;28.49;40.16;100185.81;1735670;81;21041;-75
2021/06/30 09:59:39;;;;;;;3.33;2.40;;;;;;;28.61;40.57;100182.53;1735397;80;21117;-74
2021/06/30 10:02:19;;;;;;;4.53;2.30;;;;;;;28.78;40.41;100179.62;1731636;81;21089;-74
2021/06/30 10:05:00;;;;;;;3.60;2.22;;;;;;;28.92;41.35;100179.63;1735119;81;27352;-75
2021/06/30 10:07:28;;;;;;;4.30;2.13;;;;;;;29.14;41.06;100183.22;1745679;81;21086;-73
2021/06/30 10:10:00;;;;;;;3.60;2.15;;;;;;;29.34;40.08;100169.27;1732940;80;21054;-72
2021/06/30 10:12:29;;;;;;;3.87;2.05;;;;;;;29.50;39.88;100176.34;1731684;81;21140;-74
2021/06/30 10:15:00;;;;;;;3.47;2.05;;;;;;;29.59;39.07;100175.34;1741510;80;21081;-74
2021/06/30 10:17:26;;;;;;;3.17;2.00;;;;;;;29.66;39.47;100170.63;1734255;81;21739;-74
2021/06/30 10:19:55;;;;;;;3.10;2.30;;;;;;;29.78;39.52;100181.02;1737973;81;21010;-75
2021/06/30 10:22:25;;;;;;;2.92;1.87;;;;;;;29.88;39.27;100178.27;1728600;81;21204;-74
2021/06/30 10:24:52;;;;;;;;;;;;;;;29.98;38.47;100178.03;1726761;82;21030;-74
2021/06/30 10:27:19;;;;;;;3.70;2.00;;;;;;;30.07;38.78;100178.97;1745287;81;20188;-74
2021/06/30 10:29:58;;;;;;;2.30;2.00;;;;;;;30.17;39.13;100178.74;1702267;83;21141;-82
2021/06/30 10:32:25;;;;;;;3.27;2.27;;;;;;;30.19;37.17;100171.69;1665145;84;21077;-72
2021/06/30 10:34:59;;;;;;;6.97;2.55;;;;;;;30.17;38.45;100172.63;1704540;84;21556;-73
2021/06/30 10:37:31;;;;;;;3.58;2.33;;;;;;;30.21;38.63;100172.64;1727856;80;21607;-74
2021/06/30 10:40:10;;;;;;;5.08;2.40;;;;;;;30.28;38.91;100167.91;1694917;81;21044;-72
2021/06/30 10:42:43;;;;;;;4.83;2.50;;;;;;;30.44;39.52;100161.94;1734852;80;21191;-75
2021/06/30 10:45:20;;;;;;;5.00;2.27;;;;;;;30.64;39.17;100158.67;1716200;82;21038;-72
2021/06/30 10:48:06;;;;;;;4.12;2.12;;;;;;;30.81;37.69;100160.55;1731742;80;21063;-84
2021/06/30 10:50:48;;;;;;;2.90;2.00;;;;;;;30.84;37.33;100159.75;1732348;81;21070;-74
2021/06/30 10:53:26;;;;;;;4.50;2.02;;;;;;;30.77;36.91;100154.28;1706658;82;21095;-73
2021/06/30 10:55:59;;;;;;;7.83;2.57;;;;;;;30.68;36.95;100155.30;1713182;82;21066;-73
2021/06/30 10:58:29;;;;;;;3.05;2.27;;;;;;;30.60;37.99;100149.83;1725333;81;21008;-73
2021/06/30 11:01:03;;;;;;;3.42;2.00;;;;;;;30.59;37.17;100141.35;1728709;81;21481;-74
2021/06/30 11:03:48;;;;;;;3.95;1.98;;;;;;;30.66;37.69;100145.25;1727730;81;21137;-74
2021/06/30 11:06:24;;;;;;;5.42;1.98;;;;;;;30.72;36.99;100136.75;1728521;82;21062;-73
2021/06/30 11:09:05;;;;;;;3.52;1.92;;;;;;;30.77;36.63;100138.52;1730522;81;21520;-74
2021/06/30 11:11:38;;;;;;;3.20;2.20;;;;;;;30.81;37.88;100128.84;1721824;81;21115;-73
2021/06/30 11:14:09;;;;;;;4.45;2.17;;;;;;;30.93;38.42;100123.42;1729197;81;21050;-73
2021/06/30 11:16:45;;;;;;;3.20;1.90;;;;;;;31.06;37.96;100113.45;1728485;81;21537;-74
2021/06/30 11:19:21;;;;;;;2.58;1.80;;;;;;;31.17;37.10;100114.16;1736293;80;21037;-74
2021/06/30 11:21:54;;;;;;;3.20;1.90;;;;;;;31.25;36.76;100112.11;1674632;83;21142;-74
2021/06/30 11:24:44;;;;;;;2.50;2.10;;;;;;;31.24;36.00;100116.84;1719797;82;21513;-72
2021/06/30 11:27:26;;;;;;;2.87;1.80;;;;;;;31.21;36.93;100119.05;1727037;81;21033;-73
2021/06/30 11:30:03;;;;;;;3.37;2.15;;;;;;;31.18;36.67;100114.94;1726565;82;21194;-72
2021/06/30 11:32:38;;;;;;;3.33;2.20;;;;;;;31.16;36.53;100109.03;1728824;80;21046;-71
2021/06/30 11:35:20;;;;;;;2.65;1.90;;;;;;;31.20;36.79;100103.69;1727639;82;22002;-72